This is the latest recevied weather packets stored in our database for station/object WX5RP. If no packets are shown the sender has not sent any weather packets the latest 10 day(s).
| Time | Temp. | Humidity | Pressure | Rain* | Wind** | Luminosity | Snow |
|---|---|---|---|---|---|---|---|
| 1787658616 | 5.56° C | 70% | 1021.5 hPa | 0 mm | - | 0 W/m² | - |
| 1787658016 | 6.11° C | 63% | 1021.8 hPa | 0 mm | - | 0 W/m² | - |
| 1787657416 | 6.11° C | 63% | 1021.8 hPa | 0 mm | - | 0 W/m² | - |
| 1787656816 | 6.67° C | 63% | 1022.3 hPa | 0 mm | - | 0 W/m² | - |
| 1787656221 | 6.67° C | 64% | 1021.2 hPa | 0 mm | - | 0 W/m² | - |
| 1787655616 | 6.11° C | 64% | 1020.9 hPa | 0 mm | - | 0 W/m² | - |
| 1787655017 | 7.22° C | 64% | 1020.9 hPa | 0 mm | - | 0 W/m² | - |
| 1787654415 | 7.78° C | 59% | 1021.2 hPa | 0 mm | - | 0 W/m² | - |
| 1787653815 | 7.78° C | 59% | 1021.2 hPa | 0 mm | - | 0 W/m² | - |
| 1787653215 | 7.78° C | 61% | 1020.9 hPa | 0 mm | - | 0 W/m² | - |
| 1787652615 | 8.33° C | 59% | 1021.1 hPa | 0 mm | - | 0 W/m² | - |
| 1787652016 | 7.78° C | 63% | 1021.1 hPa | 0 mm | - | 0 W/m² | - |
| 1787651415 | 8.33° C | 60% | 1020.8 hPa | 0 mm | - | 0 W/m² | - |
| 1787650815 | 8.89° C | 61% | 1021.1 hPa | 0 mm | - | 0 W/m² | - |
| 1787650215 | 9.44° C | 60% | 1021.2 hPa | 0 mm | - | 0 W/m² | - |
| 1787649615 | 9.44° C | 57% | 1020.8 hPa | 0 mm | - | 0 W/m² | - |
| 1787649016 | 10° C | 54% | 1021.2 hPa | 0 mm | - | 0 W/m² | - |
| 1787648415 | 10° C | 57% | 1021.2 hPa | 0 mm | - | 0 W/m² | - |
| 1787647817 | 10.56° C | 52% | 1020.9 hPa | 0 mm | - | 0 W/m² | - |
| 1787647217 | 11.11° C | 54% | 1020.9 hPa | 0 mm | - | 0 W/m² | - |
| 1787646618 | 12.22° C | 45% | 1021.1 hPa | 0 mm | - | 0 W/m² | - |
| 1787646017 | 11.67° C | 46% | 1020.9 hPa | 0 mm | - | 0 W/m² | - |
| 1787645417 | 11.67° C | 46% | 1021.4 hPa | 0 mm | - | 0 W/m² | - |
| 1787644817 | 10.56° C | 54% | 1020.9 hPa | 0 mm | - | 0 W/m² | - |
| 1787644217 | 10.56° C | 58% | 1021.2 hPa | 0 mm | - | 0 W/m² | - |
* Rain latest hour (hover to see other rain measurements)
** Current wind speed in m/s (hover to see current wind gust speed)